Time;durP1;ratioP1;P1;durP2;ratioP2;P2;SDS_P1;SDS_P2;PMS_P1;PMS_P2;Temp;Humidity;BMP_temperature;BMP_pressure;BME280_temperature;BME280_humidity;BME280_pressure;Samples;Min_cycle;Max_cycle;Signal;HPM_P1;HPM_P2
2022/03/09 00:00:22;;;;;;;26.67;19.43;;;5.40;99.90;;;;;;5037739;28;20460;-76
2022/03/09 00:02:49;;;;;;;31.80;19.20;;;5.40;99.90;;;;;;5037870;28;20912;-76
2022/03/09 00:05:16;;;;;;;29.20;20.20;;;5.40;99.90;;;;;;5037924;28;20777;-76
2022/03/09 00:07:42;;;;;;;25.07;17.90;;;5.40;99.90;;;;;;5037896;28;20460;-76
2022/03/09 00:10:10;;;;;;;30.70;19.17;;;5.30;99.90;;;;;;5037944;28;20464;-76
2022/03/09 00:12:37;;;;;;;29.67;20.67;;;5.30;99.90;;;;;;5037415;28;20456;-76
2022/03/09 00:15:06;;;;;;;33.77;19.43;;;5.30;99.90;;;;;;5037047;28;20456;-76
2022/03/09 00:17:33;;;;;;;29.77;20.10;;;5.30;99.90;;;;;;5036833;28;20460;-76
2022/03/09 00:20:00;;;;;;;25.90;18.93;;;5.30;99.90;;;;;;5037059;28;20495;-76
2022/03/09 00:22:27;;;;;;;28.80;19.87;;;5.30;99.90;;;;;;5037037;28;20513;-76
2022/03/09 00:24:55;;;;;;;27.00;19.13;;;5.30;99.90;;;;;;5037608;28;20452;-76
2022/03/09 00:27:22;;;;;;;26.97;19.57;;;5.30;99.90;;;;;;5037492;28;20460;-76
2022/03/09 00:29:48;;;;;;;26.37;19.27;;;5.30;99.90;;;;;;5036988;28;20522;-76
2022/03/09 00:32:17;;;;;;;28.40;20.37;;;5.30;99.90;;;;;;5037026;28;20480;-76
2022/03/09 00:34:43;;;;;;;28.60;20.80;;;5.20;99.90;;;;;;5037353;28;20467;-76
2022/03/09 00:37:10;;;;;;;27.97;19.90;;;5.20;99.90;;;;;;5036977;28;20460;-76
2022/03/09 00:39:37;;;;;;;33.57;18.77;;;5.20;99.90;;;;;;5037345;28;20763;-79
2022/03/09 00:42:04;;;;;;;35.37;18.63;;;5.20;99.90;;;;;;5040614;28;20457;-76
2022/03/09 00:44:34;;;;;;;25.80;20.20;;;5.10;99.90;;;;;;5045611;28;20516;-78
2022/03/09 00:55:14;;;;;;;;;;;;;;;;;;;;;
2022/03/09 11:19:02;;;;;;;11.00;5.97;;;11.10;99.20;;;;;;4827834;29;20437;-76
2022/03/09 11:21:30;;;;;;;9.27;5.83;;;11.20;98.70;;;;;;4952881;28;20247;-76
2022/03/09 11:23:57;;;;;;;8.67;6.17;;;11.30;98.80;;;;;;4975827;28;20957;-76
2022/03/09 11:26:26;;;;;;;6.73;5.77;;;11.40;98.40;;;;;;4976040;28;20458;-77
2022/03/09 11:29:01;;;;;;;7.83;5.57;;;11.50;97.20;;;;;;4977328;28;20462;-77
2022/03/09 11:31:44;;;;;;;9.87;5.37;;;11.50;96.10;;;;;;4977146;28;20450;-76
2022/03/09 11:34:32;;;;;;;32.40;8.50;;;11.50;95.70;;;;;;4978038;28;20474;-74
2022/03/09 11:37:00;;;;;;;6.67;4.97;;;11.60;95.60;;;;;;4977752;28;20455;-70
2022/03/09 11:39:27;;;;;;;6.53;5.07;;;11.60;94.90;;;;;;4977025;28;20471;-71
2022/03/09 11:42:26;;;;;;;21.93;15.47;;;11.70;94.00;;;;;;4976010;28;20473;-71
2022/03/09 11:44:54;;;;;;;8.47;5.47;;;11.80;93.20;;;;;;4975855;28;20604;-70
2022/03/09 11:47:22;;;;;;;17.37;12.10;;;11.90;92.70;;;;;;4975629;28;20491;-70
2022/03/09 11:50:09;;;;;;;7.30;5.40;;;11.90;91.20;;;;;;4981354;28;20552;-70
2022/03/09 11:52:55;;;;;;;9.60;5.20;;;11.90;90.20;;;;;;5014719;28;20445;-70
2022/03/09 11:55:21;;;;;;;6.03;4.83;;;12.00;89.10;;;;;;5014280;28;20465;-70
2022/03/09 11:58:11;;;;;;;7.10;5.27;;;12.10;88.70;;;;;;5014508;28;20780;-70
2022/03/09 12:00:40;;;;;;;6.47;5.30;;;12.20;88.30;;;;;;5014100;28;21055;-69
2022/03/09 12:03:07;;;;;;;8.23;6.10;;;12.40;87.60;;;;;;5014159;28;20457;-69
2022/03/09 12:05:38;;;;;;;6.43;5.50;;;12.60;86.60;;;;;;5014142;28;20484;-69
2022/03/09 12:08:06;;;;;;;5.40;4.90;;;13.00;85.70;;;;;;5013941;28;20518;-71
2022/03/09 12:10:52;;;;;;;8.60;5.43;;;13.80;80.90;;;;;;5014009;28;20935;-70
2022/03/09 12:13:31;;;;;;;5.73;4.80;;;15.00;77.90;;;;;;5013812;28;20477;-69
2022/03/09 12:16:24;;;;;;;5.27;4.20;;;16.40;67.50;;;;;;5014135;28;20730;-70
2022/03/09 12:19:15;;;;;;;5.97;4.47;;;17.80;54.70;;;;;;5010790;28;20464;-69
2022/03/09 12:22:16;;;;;;;7.10;5.27;;;19.00;50.20;;;;;;5014601;28;20449;-71
2022/03/09 12:24:43;;;;;;;5.57;4.50;;;20.00;43.00;;;;;;5014317;28;20541;-69
2022/03/09 12:27:24;;;;;;;6.83;5.30;;;20.30;39.40;;;;;;5013860;28;20564;-70
2022/03/09 12:29:51;;;;;;;6.97;4.17;;;20.20;36.20;;;;;;5013087;28;20577;-69
2022/03/09 12:32:21;;;;;;;13.87;10.77;;;20.00;34.40;;;;;;5013873;28;20461;-69
2022/03/09 12:34:49;;;;;;;5.80;4.60;;;20.10;34.20;;;;;;5013871;28;20979;-69
2022/03/09 12:37:19;;;;;;;8.07;4.63;;;20.60;33.30;;;;;;5014576;28;20530;-71
2022/03/09 12:39:57;;;;;;;11.23;5.40;;;20.70;33.30;;;;;;5015141;28;20445;-69
2022/03/09 12:42:27;;;;;;;5.87;4.80;;;21.20;32.30;;;;;;5013798;28;20495;-69
2022/03/09 12:44:58;;;;;;;6.50;5.60;;;21.60;31.40;;;;;;5014202;28;20507;-70
2022/03/09 12:47:25;;;;;;;5.90;5.17;;;22.20;30.80;;;;;;5037217;28;20489;-70
2022/03/09 12:49:54;;;;;;;6.13;5.10;;;22.20;31.00;;;;;;5053486;28;20481;-71
2022/03/09 12:52:23;;;;;;;6.33;5.37;;;22.40;29.90;;;;;;5053149;28;20502;-70
2022/03/09 12:54:52;;;;;;;10.10;5.60;;;22.50;28.10;;;;;;5053147;28;20451;-70
2022/03/09 12:57:23;;;;;;;5.97;5.37;;;22.70;27.60;;;;;;5052805;28;20459;-70
2022/03/09 13:00:01;;;;;;;9.80;5.63;;;22.70;27.10;;;;;;5053000;28;20450;-71
2022/03/09 13:02:39;;;;;;;6.10;4.67;;;22.50;26.70;;;;;;5053090;28;21024;-71
2022/03/09 13:05:07;;;;;;;8.07;5.93;;;22.10;26.10;;;;;;5053141;28;20467;-68
2022/03/09 13:07:35;;;;;;;5.53;4.93;;;21.80;26.30;;;;;;5053203;28;20789;-68
2022/03/09 13:10:05;;;;;;;8.90;5.90;;;22.20;25.70;;;;;;5052801;28;20470;-69
2022/03/09 13:12:32;;;;;;;7.30;5.40;;;22.30;26.00;;;;;;5059684;28;20565;-69
2022/03/09 13:15:01;;;;;;;8.80;6.63;;;22.10;25.70;;;;;;5073068;28;20461;-69
2022/03/09 13:17:28;;;;;;;11.67;5.50;;;22.10;25.50;;;;;;5072568;28;20474;-69
2022/03/09 13:19:55;;;;;;;6.30;5.67;;;22.20;25.80;;;;;;5072589;28;20454;-69
2022/03/09 13:22:23;;;;;;;8.13;6.73;;;22.80;25.80;;;;;;5072538;28;20465;-68
2022/03/09 13:25:01;;;;;;;6.23;5.63;;;22.80;25.70;;;;;;5072780;28;20845;-69
2022/03/09 13:27:28;;;;;;;8.13;5.70;;;22.60;25.70;;;;;;5073262;28;20434;-69
2022/03/09 13:29:55;;;;;;;7.47;6.17;;;22.80;24.90;;;;;;5072599;28;20515;-70
2022/03/09 13:32:30;;;;;;;11.60;6.30;;;22.50;25.00;;;;;;5072393;28;20540;-68
2022/03/09 13:34:57;;;;;;;7.27;5.27;;;22.70;24.50;;;;;;5072392;28;20446;-68
2022/03/09 13:37:33;;;;;;;6.30;5.70;;;23.00;24.50;;;;;;5072353;28;20462;-68
2022/03/09 13:40:03;;;;;;;5.80;5.20;;;23.90;24.40;;;;;;5072076;28;20881;-68
2022/03/09 13:42:34;;;;;;;6.73;4.80;;;24.50;22.60;;;;;;5072366;28;20504;-68
2022/03/09 13:45:03;;;;;;;6.70;5.17;;;24.10;22.00;;;;;;5072248;28;20940;-69
2022/03/09 13:47:30;;;;;;;12.80;5.90;;;23.70;22.40;;;;;;5071833;28;20798;-68
2022/03/09 13:49:58;;;;;;;5.90;5.10;;;24.10;22.50;;;;;;5072543;28;20450;-69
2022/03/09 13:52:29;;;;;;;5.17;4.67;;;24.20;21.80;;;;;;5072286;28;20462;-68
2022/03/09 13:54:56;;;;;;;7.27;4.80;;;23.90;21.30;;;;;;5072265;28;20466;-69
2022/03/09 13:57:37;;;;;;;26.67;21.33;;;24.10;21.40;;;;;;5072328;28;20465;-69
2022/03/09 14:00:23;;;;;;;8.83;5.23;;;24.60;21.60;;;;;;5072473;28;20527;-69
2022/03/09 14:02:55;;;;;;;12.53;11.23;;;24.80;22.00;;;;;;5072302;28;20442;-70
2022/03/09 14:05:31;;;;;;;7.37;6.03;;;25.40;21.90;;;;;;5072008;28;20490;-69
2022/03/09 14:07:59;;;;;;;6.30;4.90;;;25.60;21.20;;;;;;5072477;28;20442;-69
2022/03/09 14:10:27;;;;;;;5.93;5.30;;;25.00;20.60;;;;;;5073031;28;20482;-68
2022/03/09 14:12:57;;;;;;;5.73;4.73;;;24.70;20.20;;;;;;5073279;28;20480;-68
2022/03/09 14:15:26;;;;;;;6.40;5.80;;;24.40;20.60;;;;;;5073499;28;20454;-68
2022/03/09 14:17:52;;;;;;;6.57;4.80;;;24.30;21.00;;;;;;5073361;28;20539;-69
2022/03/09 14:20:19;;;;;;;6.40;4.90;;;24.80;21.10;;;;;;5074104;28;20446;-68
2022/03/09 14:22:48;;;;;;;5.43;4.30;;;24.70;20.20;;;;;;5073784;28;20454;-68
2022/03/09 14:25:16;;;;;;;5.60;4.43;;;24.40;20.20;;;;;;5072345;28;20489;-69
2022/03/09 14:27:44;;;;;;;6.30;4.83;;;24.30;20.00;;;;;;5072668;28;20465;-69
2022/03/09 14:30:14;;;;;;;7.60;5.10;;;24.10;20.40;;;;;;5072496;28;20830;-68
2022/03/09 14:32:42;;;;;;;5.50;4.73;;;24.00;20.80;;;;;;5072699;28;20834;-69
2022/03/09 14:35:11;;;;;;;5.93;4.30;;;24.00;20.60;;;;;;5072094;28;20462;-69
2022/03/09 14:37:38;;;;;;;5.53;4.10;;;24.50;20.30;;;;;;5071917;28;20552;-68
2022/03/09 14:40:06;;;;;;;4.60;4.10;;;24.90;20.00;;;;;;5072020;28;20790;-69
2022/03/09 14:42:35;;;;;;;5.70;5.03;;;24.70;19.70;;;;;;5072461;28;20501;-69
2022/03/09 14:45:01;;;;;;;7.73;5.07;;;24.40;19.80;;;;;;5073063;28;20553;-68
2022/03/09 14:47:32;;;;;;;4.63;4.17;;;24.50;19.70;;;;;;5072961;28;20488;-69
2022/03/09 14:49:59;;;;;;;5.23;4.03;;;24.60;20.00;;;;;;5072112;28;20456;-68
2022/03/09 14:52:26;;;;;;;7.60;5.17;;;24.40;19.20;;;;;;5073579;28;20477;-68
2022/03/09 14:54:53;;;;;;;8.03;5.67;;;24.20;19.80;;;;;;5075332;28;20454;-70
2022/03/09 14:57:20;;;;;;;10.87;7.57;;;23.60;20.10;;;;;;5075320;28;20603;-69
2022/03/09 14:59:46;;;;;;;12.23;6.47;;;23.00;20.70;;;;;;5075073;28;20481;-69
2022/03/09 15:02:13;;;;;;;10.43;8.47;;;22.50;21.30;;;;;;5074860;28;20861;-69
2022/03/09 15:04:41;;;;;;;12.30;7.20;;;22.00;21.70;;;;;;5075150;28;20545;-69
2022/03/09 15:07:08;;;;;;;9.13;5.90;;;22.20;22.00;;;;;;5074851;28;20474;-69
2022/03/09 15:09:35;;;;;;;6.90;5.07;;;22.50;21.60;;;;;;5075112;28;20519;-69
2022/03/09 15:12:03;;;;;;;5.10;4.40;;;22.70;21.50;;;;;;5074549;28;20462;-69
2022/03/09 15:14:29;;;;;;;9.40;4.87;;;22.80;21.40;;;;;;5074813;28;20568;-68
2022/03/09 15:16:58;;;;;;;5.90;4.77;;;23.10;21.00;;;;;;5074883;28;21023;-69
2022/03/09 15:19:26;;;;;;;4.63;4.00;;;22.80;21.30;;;;;;5074731;28;20903;-68
2022/03/09 15:21:54;;;;;;;6.93;4.70;;;22.90;21.80;;;;;;5074428;28;20964;-70
2022/03/09 15:24:23;;;;;;;9.60;6.27;;;23.60;21.10;;;;;;5074407;28;20548;-69
2022/03/09 15:26:50;;;;;;;6.30;5.60;;;23.80;21.00;;;;;;5074381;28;21031;-69
2022/03/09 15:29:17;;;;;;;4.70;4.20;;;23.40;21.10;;;;;;5074526;28;20465;-69
2022/03/09 15:31:46;;;;;;;6.70;5.57;;;23.00;21.70;;;;;;5074311;28;20482;-69
2022/03/09 15:34:13;;;;;;;6.33;4.80;;;22.90;21.40;;;;;;5074454;28;20462;-68
2022/03/09 15:36:40;;;;;;;5.77;5.17;;;22.50;21.80;;;;;;5074386;28;20470;-68
2022/03/09 15:39:08;;;;;;;6.37;5.53;;;22.10;21.80;;;;;;5074134;28;20530;-68
2022/03/09 15:41:35;;;;;;;5.63;4.77;;;21.80;22.30;;;;;;5074222;28;20992;-69
2022/03/09 15:44:05;;;;;;;7.60;4.77;;;21.60;22.50;;;;;;5073885;28;20458;-68
2022/03/09 15:46:34;;;;;;;6.27;5.47;;;21.80;22.50;;;;;;5073892;28;20477;-68
2022/03/09 15:49:01;;;;;;;7.33;5.77;;;22.40;22.70;;;;;;5074242;28;20439;-69
2022/03/09 15:51:27;;;;;;;7.50;5.67;;;22.70;21.90;;;;;;5073832;28;20458;-69
2022/03/09 15:53:54;;;;;;;7.40;5.70;;;22.80;22.00;;;;;;5073841;28;20932;-68
2022/03/09 15:56:23;;;;;;;6.53;5.40;;;22.90;22.00;;;;;;5073907;28;20529;-68
2022/03/09 15:58:50;;;;;;;8.60;5.10;;;22.70;21.60;;;;;;5074143;28;20454;-68
2022/03/09 16:01:17;;;;;;;10.60;6.70;;;22.30;21.80;;;;;;5073645;28;20937;-68
2022/03/09 16:03:44;;;;;;;5.60;4.73;;;21.80;21.90;;;;;;5073600;28;20793;-68
2022/03/09 16:06:11;;;;;;;7.10;4.77;;;21.20;22.30;;;;;;5074044;28;20573;-69
2022/03/09 16:08:38;;;;;;;5.20;4.60;;;20.90;22.60;;;;;;5074015;28;20474;-68
2022/03/09 16:11:05;;;;;;;8.33;5.10;;;20.80;22.70;;;;;;5073461;28;20462;-68
2022/03/09 16:13:33;;;;;;;14.50;11.47;;;20.80;22.70;;;;;;5073620;28;20842;-69
2022/03/09 16:15:59;;;;;;;7.33;5.07;;;20.30;23.20;;;;;;5073526;28;20565;-69
2022/03/09 16:18:26;;;;;;;8.20;5.90;;;19.90;23.70;;;;;;5073405;28;20984;-69
2022/03/09 16:20:53;;;;;;;6.87;5.67;;;19.60;23.90;;;;;;5073301;28;20765;-68
2022/03/09 16:23:20;;;;;;;7.93;5.80;;;19.30;24.40;;;;;;5073309;28;20450;-69
2022/03/09 16:25:47;;;;;;;5.33;4.80;;;19.10;24.70;;;;;;5073587;28;20465;-68
2022/03/09 16:28:14;;;;;;;6.80;5.67;;;18.90;24.80;;;;;;5073350;28;20797;-69
2022/03/09 16:30:42;;;;;;;9.20;5.73;;;18.50;25.10;;;;;;5073437;28;20520;-69
2022/03/09 16:33:09;;;;;;;8.90;6.70;;;18.30;25.40;;;;;;5073678;28;20828;-68
2022/03/09 16:35:36;;;;;;;7.50;5.63;;;17.70;25.70;;;;;;5073732;28;20466;-68
2022/03/09 16:38:03;;;;;;;11.37;6.10;;;17.20;26.30;;;;;;5073670;28;20544;-69
2022/03/09 16:40:30;;;;;;;8.83;5.33;;;16.70;26.90;;;;;;5073466;28;20520;-69
2022/03/09 16:42:57;;;;;;;7.10;5.30;;;16.10;27.50;;;;;;5073752;28;20589;-68
2022/03/09 16:45:24;;;;;;;6.53;5.30;;;15.60;28.00;;;;;;5073241;28;20780;-69
2022/03/09 16:47:52;;;;;;;5.83;4.70;;;15.20;28.60;;;;;;5073200;28;20478;-68
2022/03/09 16:50:19;;;;;;;6.73;4.83;;;14.90;28.90;;;;;;5073022;28;20458;-69
2022/03/09 16:52:45;;;;;;;5.77;4.73;;;14.60;29.30;;;;;;5073730;28;20462;-70
2022/03/09 16:55:16;;;;;;;8.50;5.73;;;14.20;29.80;;;;;;5073401;28;20469;-70
2022/03/09 16:57:44;;;;;;;18.03;6.50;;;14.00;30.30;;;;;;5073104;28;20453;-69
2022/03/09 17:00:12;;;;;;;43.97;22.80;;;13.70;31.10;;;;;;5073246;28;20500;-69
2022/03/09 17:02:39;;;;;;;16.50;8.17;;;13.50;31.90;;;;;;5073177;28;20549;-69
2022/03/09 17:05:08;;;;;;;12.93;6.47;;;13.30;33.40;;;;;;5073497;28;20527;-70
2022/03/09 17:07:36;;;;;;;7.83;5.50;;;13.10;34.60;;;;;;5073945;28;20881;-68
2022/03/09 17:10:05;;;;;;;6.37;5.40;;;12.80;35.50;;;;;;5074532;28;20454;-68
2022/03/09 17:12:32;;;;;;;8.40;5.57;;;12.60;36.30;;;;;;5074571;28;20458;-69
2022/03/09 17:15:02;;;;;;;6.00;5.27;;;12.40;36.90;;;;;;5078179;28;20485;-70
2022/03/09 17:17:30;;;;;;;7.07;5.60;;;12.30;38.20;;;;;;5075676;28;20435;-70
2022/03/09 17:19:57;;;;;;;7.37;5.57;;;12.20;38.20;;;;;;5072519;28;20463;-71
2022/03/09 17:22:25;;;;;;;9.27;6.00;;;12.10;38.80;;;;;;5072007;28;20873;-71
2022/03/09 17:24:52;;;;;;;10.40;6.10;;;12.00;39.30;;;;;;5072254;28;20438;-70
2022/03/09 17:27:19;;;;;;;8.47;6.43;;;11.80;39.60;;;;;;5072137;28;20474;-70
2022/03/09 17:29:46;;;;;;;12.53;8.13;;;11.80;40.10;;;;;;5072324;28;20480;-70
2022/03/09 17:32:17;;;;;;;6.43;5.70;;;11.60;40.60;;;;;;5072320;28;20801;-70
2022/03/09 17:34:44;;;;;;;7.67;6.47;;;11.60;41.50;;;;;;5072469;28;20827;-70
2022/03/09 17:37:11;;;;;;;7.90;5.97;;;11.50;42.00;;;;;;5072100;28;20451;-70
2022/03/09 17:39:41;;;;;;;9.93;6.90;;;11.40;42.50;;;;;;5072368;28;20457;-70
2022/03/09 17:42:08;;;;;;;7.43;5.87;;;11.30;42.90;;;;;;5072258;28;20497;-70
2022/03/09 17:44:35;;;;;;;6.80;6.07;;;11.20;43.40;;;;;;5072982;28;20514;-70
2022/03/09 17:47:02;;;;;;;10.97;7.00;;;11.20;44.20;;;;;;5071818;28;20596;-69
2022/03/09 17:49:28;;;;;;;7.73;6.20;;;11.20;44.60;;;;;;5072089;28;20454;-70
2022/03/09 17:51:55;;;;;;;11.90;9.20;;;11.10;44.90;;;;;;5072147;28;20462;-70
2022/03/09 17:54:23;;;;;;;10.57;7.00;;;11.00;45.20;;;;;;5072021;28;20454;-71
2022/03/09 17:56:53;;;;;;;12.47;6.93;;;10.90;45.70;;;;;;5071911;28;20446;-70
2022/03/09 17:59:20;;;;;;;8.70;6.97;;;10.90;46.40;;;;;;5072103;28;20482;-71
2022/03/09 18:01:47;;;;;;;11.00;6.97;;;10.80;46.90;;;;;;5071899;28;20480;-71
2022/03/09 18:04:15;;;;;;;8.70;6.50;;;10.80;47.90;;;;;;5072487;28;20935;-69
2022/03/09 18:06:42;;;;;;;8.40;6.20;;;10.70;48.10;;;;;;5072390;28;20989;-71
2022/03/09 18:09:09;;;;;;;7.63;5.97;;;10.60;48.80;;;;;;5072118;28;20900;-70
2022/03/09 18:11:36;;;;;;;9.13;7.40;;;10.60;49.50;;;;;;5072007;28;20465;-69
2022/03/09 18:14:05;;;;;;;9.00;6.73;;;10.50;50.00;;;;;;5072141;28;20466;-70
2022/03/09 18:16:32;;;;;;;10.80;6.60;;;10.50;50.50;;;;;;5071800;28;20447;-71
2022/03/09 18:18:59;;;;;;;8.50;6.80;;;10.40;51.10;;;;;;5071775;28;20465;-69
2022/03/09 18:21:26;;;;;;;8.03;7.20;;;10.40;52.10;;;;;;5071869;28;20465;-70
2022/03/09 18:23:53;;;;;;;21.40;13.93;;;10.30;53.00;;;;;;5071835;28;20462;-69
2022/03/09 18:26:20;;;;;;;10.47;7.30;;;10.20;53.60;;;;;;5071709;28;20453;-70
2022/03/09 18:28:47;;;;;;;12.43;7.40;;;10.20;54.50;;;;;;5075485;28;20465;-68
2022/03/09 18:31:15;;;;;;;11.70;7.13;;;10.10;54.90;;;;;;5075728;28;20526;-68
2022/03/09 18:33:43;;;;;;;10.97;7.00;;;10.10;55.70;;;;;;5075432;28;20556;-68
2022/03/09 18:36:10;;;;;;;7.83;5.83;;;10.10;56.30;;;;;;5075494;28;20469;-70
2022/03/09 18:38:37;;;;;;;8.53;6.93;;;10.00;56.50;;;;;;5076103;28;20454;-69
2022/03/09 18:41:04;;;;;;;9.20;6.70;;;10.00;56.80;;;;;;5076210;28;20507;-69
2022/03/09 18:43:31;;;;;;;11.50;6.50;;;9.90;58.20;;;;;;5076813;28;20454;-68
2022/03/09 18:45:57;;;;;;;12.63;7.33;;;9.90;58.70;;;;;;5076839;28;20460;-69
2022/03/09 18:48:25;;;;;;;10.13;7.07;;;9.80;59.00;;;;;;5076090;28;20978;-70
2022/03/09 18:50:52;;;;;;;19.33;12.53;;;9.80;59.30;;;;;;5075704;28;20644;-70
2022/03/09 18:53:19;;;;;;;11.40;8.00;;;9.80;59.70;;;;;;5075323;28;20468;-70
2022/03/09 18:55:46;;;;;;;10.83;7.57;;;9.70;60.30;;;;;;5075240;28;20458;-71
2022/03/09 18:58:12;;;;;;;9.07;6.80;;;9.70;61.40;;;;;;5075030;28;20753;-71
2022/03/09 19:00:39;;;;;;;11.57;7.97;;;9.60;61.80;;;;;;5075075;28;20786;-70
2022/03/09 19:03:06;;;;;;;9.80;7.80;;;9.60;62.50;;;;;;5074962;28;20458;-71
2022/03/09 19:05:34;;;;;;;10.77;7.97;;;9.50;62.70;;;;;;5075210;28;21014;-71
2022/03/09 19:08:01;;;;;;;9.93;7.50;;;9.50;62.90;;;;;;5074961;28;20484;-71
2022/03/09 19:10:27;;;;;;;10.80;8.10;;;9.50;63.30;;;;;;5074983;28;20484;-71
2022/03/09 19:12:54;;;;;;;11.10;8.17;;;9.40;64.40;;;;;;5075073;28;20535;-71
2022/03/09 19:15:21;;;;;;;11.40;7.67;;;9.30;64.70;;;;;;5074790;28;20458;-71
2022/03/09 19:17:47;;;;;;;11.57;9.73;;;9.30;65.10;;;;;;5074672;28;20734;-72
2022/03/09 19:20:14;;;;;;;12.90;7.87;;;9.30;66.30;;;;;;5075250;28;20541;-72
2022/03/09 19:22:45;;;;;;;11.30;8.80;;;9.20;67.20;;;;;;5074748;28;20462;-72
2022/03/09 19:25:12;;;;;;;12.70;8.20;;;9.20;68.10;;;;;;5074760;28;20529;-72
2022/03/09 19:27:41;;;;;;;13.07;8.27;;;9.20;68.30;;;;;;5075563;28;21008;-72
2022/03/09 19:30:09;;;;;;;10.30;8.30;;;9.10;69.00;;;;;;5074823;28;20465;-72
2022/03/09 19:32:38;;;;;;;12.03;7.90;;;9.10;70.40;;;;;;5074763;28;20461;-72
2022/03/09 19:35:05;;;;;;;11.00;8.00;;;9.10;70.80;;;;;;5074852;28;20837;-71
2022/03/09 19:37:33;;;;;;;10.23;8.07;;;9.00;71.50;;;;;;5074218;28;20458;-71
2022/03/09 19:40:02;;;;;;;12.60;8.97;;;9.00;72.50;;;;;;5074920;28;20483;-71
2022/03/09 19:42:29;;;;;;;11.90;9.77;;;8.90;74.10;;;;;;5074638;28;20539;-70
2022/03/09 19:44:56;;;;;;;15.17;9.67;;;8.90;75.30;;;;;;5074364;28;20470;-71
2022/03/09 19:47:23;;;;;;;13.03;10.20;;;8.90;76.00;;;;;;5074103;28;20482;-71
2022/03/09 19:49:51;;;;;;;12.40;9.10;;;8.90;77.40;;;;;;5074545;28;20956;-71
2022/03/09 19:52:22;;;;;;;13.60;9.20;;;8.90;78.10;;;;;;5074463;28;20458;-71
2022/03/09 19:54:49;;;;;;;12.00;8.90;;;8.80;79.40;;;;;;5074289;28;20435;-72
2022/03/09 19:57:17;;;;;;;12.50;9.20;;;8.90;78.50;;;;;;5074283;28;20451;-70
2022/03/09 19:59:44;;;;;;;13.97;9.47;;;8.80;78.80;;;;;;5074210;28;20469;-70
2022/03/09 20:02:11;;;;;;;14.33;10.03;;;8.70;80.70;;;;;;5074957;28;20465;-71
2022/03/09 20:04:38;;;;;;;15.20;10.70;;;8.70;81.40;;;;;;5075076;28;20462;-72
2022/03/09 20:07:10;;;;;;;18.00;10.23;;;8.70;82.00;;;;;;5074662;28;20529;-71
2022/03/09 20:09:37;;;;;;;12.50;9.53;;;8.60;83.30;;;;;;5074697;28;20899;-72
2022/03/09 20:12:04;;;;;;;12.40;9.13;;;8.60;83.50;;;;;;5074680;28;20523;-72
2022/03/09 20:14:33;;;;;;;16.97;10.07;;;8.60;84.30;;;;;;5074289;28;20454;-73
2022/03/09 20:16:59;;;;;;;18.50;10.70;;;8.60;84.50;;;;;;5074223;28;20469;-73
2022/03/09 20:19:26;;;;;;;15.97;10.50;;;8.50;85.00;;;;;;5074427;28;20468;-73
2022/03/09 20:21:54;;;;;;;16.47;10.10;;;8.40;85.90;;;;;;5074179;28;20469;-73
2022/03/09 20:24:22;;;;;;;14.67;9.50;;;8.40;85.40;;;;;;5074174;28;20484;-74
2022/03/09 20:26:49;;;;;;;12.83;9.33;;;8.40;86.00;;;;;;5073962;28;20450;-74
2022/03/09 20:29:16;;;;;;;12.90;9.13;;;8.30;85.60;;;;;;5073684;28;20450;-74
2022/03/09 20:31:47;;;;;;;17.67;12.13;;;8.30;85.80;;;;;;5073525;28;20932;-74
2022/03/09 20:34:14;;;;;;;13.60;9.93;;;8.20;85.50;;;;;;5073845;28;20541;-74
2022/03/09 20:36:40;;;;;;;14.97;9.27;;;8.20;85.40;;;;;;5073646;28;20549;-74
2022/03/09 20:39:07;;;;;;;13.60;9.60;;;8.20;85.60;;;;;;5073702;28;20504;-74
2022/03/09 20:41:34;;;;;;;16.87;10.80;;;8.10;85.60;;;;;;5073359;28;20568;-74
2022/03/09 20:44:01;;;;;;;13.73;9.47;;;8.10;86.30;;;;;;5073502;28;20458;-74
2022/03/09 20:46:27;;;;;;;13.53;9.20;;;8.00;86.00;;;;;;5073550;28;20789;-74
2022/03/09 20:48:55;;;;;;;12.77;9.97;;;8.00;86.80;;;;;;5073641;28;20469;-74
2022/03/09 20:51:22;;;;;;;12.77;9.00;;;8.00;87.20;;;;;;5073574;28;20473;-74
2022/03/09 20:53:49;;;;;;;13.90;9.87;;;7.90;87.10;;;;;;5073795;28;20560;-75
2022/03/09 20:56:16;;;;;;;12.60;8.73;;;7.90;87.70;;;;;;5073675;28;20527;-74
2022/03/09 20:58:42;;;;;;;14.37;9.67;;;7.80;88.30;;;;;;5073295;28;21014;-74
2022/03/09 21:01:11;;;;;;;16.13;9.60;;;7.80;89.30;;;;;;5073216;28;20516;-74
2022/03/09 21:03:37;;;;;;;14.13;9.90;;;7.80;89.70;;;;;;5073208;28;20516;-74
2022/03/09 21:06:05;;;;;;;16.13;10.00;;;7.80;89.60;;;;;;5073627;28;20458;-74
2022/03/09 21:08:32;;;;;;;14.83;9.27;;;7.70;89.70;;;;;;5072929;28;20482;-74
2022/03/09 21:10:59;;;;;;;15.00;9.43;;;7.70;90.10;;;;;;5073367;28;20465;-74
2022/03/09 21:13:25;;;;;;;13.30;9.80;;;7.70;90.60;;;;;;5073822;28;20873;-74
2022/03/09 21:15:52;;;;;;;14.10;9.70;;;7.70;90.70;;;;;;5073309;28;20816;-74
2022/03/09 21:18:19;;;;;;;15.63;9.93;;;7.60;91.00;;;;;;5073441;28;20520;-74
2022/03/09 21:20:46;;;;;;;16.17;10.90;;;7.60;91.20;;;;;;5072798;28;20512;-74
2022/03/09 21:23:14;;;;;;;14.80;9.90;;;7.60;91.40;;;;;;5074488;28;20787;-74
2022/03/09 21:25:40;;;;;;;15.30;10.27;;;7.60;91.70;;;;;;5074542;28;20816;-74
2022/03/09 21:28:07;;;;;;;14.30;9.67;;;7.50;91.90;;;;;;5073828;28;20991;-74
2022/03/09 21:30:34;;;;;;;15.60;9.57;;;7.50;92.10;;;;;;5074916;28;20525;-74
2022/03/09 21:33:01;;;;;;;16.23;10.67;;;7.40;92.50;;;;;;5083319;28;20463;-74
2022/03/09 21:35:28;;;;;;;16.07;10.63;;;7.40;92.70;;;;;;5076561;28;20462;-74
2022/03/09 21:37:56;;;;;;;13.53;10.03;;;7.40;93.00;;;;;;5073227;28;20534;-74
2022/03/09 21:40:24;;;;;;;15.40;11.30;;;7.40;93.30;;;;;;5073005;28;20928;-74
2022/03/09 21:42:51;;;;;;;21.73;13.60;;;7.30;93.40;;;;;;5073153;28;20451;-74
2022/03/09 21:45:18;;;;;;;20.80;14.73;;;7.30;93.80;;;;;;5072736;28;20970;-74
2022/03/09 21:47:44;;;;;;;15.10;11.73;;;7.20;94.30;;;;;;5072783;28;20980;-74
2022/03/09 21:50:11;;;;;;;19.47;10.60;;;7.20;94.70;;;;;;5072841;28;20846;-74
2022/03/09 21:52:38;;;;;;;15.67;10.50;;;7.10;95.00;;;;;;5072870;28;20465;-74
2022/03/09 21:55:06;;;;;;;18.90;11.67;;;7.10;95.50;;;;;;5072399;28;20469;-74
2022/03/09 21:57:35;;;;;;;14.67;10.60;;;7.10;96.00;;;;;;5072755;28;20924;-74
2022/03/09 22:00:04;;;;;;;13.80;9.90;;;7.00;96.40;;;;;;5072777;28;20494;-74
2022/03/09 22:02:31;;;;;;;17.30;11.00;;;7.00;96.90;;;;;;5076691;28;20460;-74
2022/03/09 22:04:58;;;;;;;16.60;11.13;;;7.00;97.40;;;;;;5076614;28;20786;-74
2022/03/09 22:07:24;;;;;;;16.83;11.30;;;6.90;97.80;;;;;;5077396;28;20465;-74
2022/03/09 22:09:51;;;;;;;22.40;13.40;;;7.00;98.50;;;;;;5081043;28;20466;-75
2022/03/09 22:12:18;;;;;;;25.93;15.03;;;6.90;98.90;;;;;;5083311;28;20971;-74
2022/03/09 22:14:52;;;;;;;15.07;10.47;;;6.90;99.20;;;;;;5087030;28;20472;-75
2022/03/09 22:20:34;;;;;;;19.27;12.30;;;6.90;99.80;;;;;;5081838;28;20519;-74
